Time;durP1;ratioP1;P1;durP2;ratioP2;P2;SDS_P1;SDS_P2;PMS_P1;PMS_P2;Temp;Humidity;BMP_temperature;BMP_pressure;BME280_temperature;BME280_humidity;BME280_pressure;Samples;Min_cycle;Max_cycle;Signal;HPM_P1;HPM_P2
2022/04/27 00:00:10;;;;;;;15.68;8.68;;;;;;;10.20;54.02;101326.94;2057605;28;20871;-70
2022/04/27 00:01:18;;;;;;;15.27;8.32;;;;;;;10.10;53.54;101322.31;2046202;29;20287;-70
2022/04/27 00:02:21;;;;;;;16.00;8.52;;;;;;;10.04;53.69;101336.75;2040953;28;21375;-71
2022/04/27 00:03:26;;;;;;;18.55;8.75;;;;;;;9.99;53.35;101331.34;2058230;28;20305;-70
2022/04/27 00:04:28;;;;;;;20.25;9.43;;;;;;;9.92;53.72;101341.50;2057933;28;20289;-70
2022/04/27 00:05:33;;;;;;;17.98;9.30;;;;;;;9.88;54.01;101335.81;2058349;28;20819;-71
2022/04/27 00:06:38;;;;;;;17.88;9.13;;;;;;;9.85;54.94;101340.91;2058318;28;20281;-71
2022/04/27 00:07:45;;;;;;;16.58;9.75;;;;;;;9.82;55.11;101338.72;2057409;28;20297;-70
2022/04/27 00:08:49;;;;;;;16.70;9.32;;;;;;;9.80;55.25;101338.94;2057673;28;20298;-70
2022/04/27 00:09:52;;;;;;;20.40;9.68;;;;;;;9.84;55.40;101334.72;2042791;28;20833;-70
2022/04/27 00:10:56;;;;;;;19.83;9.52;;;;;;;9.85;55.29;101336.31;2039115;28;20299;-70
2022/04/27 00:12:03;;;;;;;18.27;10.02;;;;;;;9.88;55.77;101341.19;2043377;28;20283;-70
2022/04/27 00:13:14;;;;;;;19.38;10.25;;;;;;;9.92;55.47;101339.59;2050911;28;20302;-70
2022/04/27 00:14:17;;;;;;;18.45;9.93;;;;;;;9.92;55.17;101342.28;2052456;28;20292;-70
2022/04/27 00:15:23;;;;;;;19.80;10.02;;;;;;;9.90;55.29;101341.75;2059420;28;20282;-70
2022/04/27 00:16:27;;;;;;;19.08;9.20;;;;;;;9.92;55.75;101346.88;2064296;28;20291;-70
2022/04/27 00:17:29;;;;;;;19.92;10.55;;;;;;;9.91;56.09;101343.38;2042370;29;20310;-70
2022/04/27 00:18:32;;;;;;;18.05;9.98;;;;;;;9.92;55.38;101347.66;2043388;28;20351;-70
2022/04/27 00:19:34;;;;;;;19.35;10.07;;;;;;;9.91;55.78;101350.63;2050601;28;20454;-70
2022/04/27 00:20:37;;;;;;;20.27;10.35;;;;;;;9.90;55.35;101349.00;2050256;28;20824;-70
2022/04/27 00:21:41;;;;;;;17.15;9.90;;;;;;;9.88;55.86;101356.50;2062220;28;20289;-70
2022/04/27 00:22:44;;;;;;;20.35;9.60;;;;;;;9.89;55.71;101364.28;2058391;28;20312;-71
2022/04/27 00:23:49;;;;;;;18.38;9.60;;;;;;;9.85;55.72;101357.81;2058050;28;20293;-71
2022/04/27 00:24:56;;;;;;;18.05;9.55;;;;;;;9.84;56.58;101361.56;2050403;28;20285;-71
2022/04/27 00:25:59;;;;;;;16.95;9.23;;;;;;;9.84;56.41;101360.78;2050090;28;20297;-69
2022/04/27 00:27:01;;;;;;;21.27;9.82;;;;;;;9.87;56.63;101365.63;2054822;28;20294;-70
2022/04/27 00:28:08;;;;;;;19.85;9.85;;;;;;;9.89;56.74;101369.66;2054077;28;20298;-70
2022/04/27 00:29:13;;;;;;;17.92;9.27;;;;;;;9.90;56.44;101373.19;2061128;28;20352;-70
2022/04/27 00:30:19;;;;;;;19.05;9.23;;;;;;;9.92;57.36;101365.66;2062417;28;20294;-70
2022/04/27 00:31:24;;;;;;;17.73;8.68;;;;;;;9.88;57.23;101370.75;2054185;28;20289;-70
2022/04/27 00:32:26;;;;;;;16.00;9.43;;;;;;;9.88;57.95;101373.44;2060215;28;20289;-70
2022/04/27 00:33:29;;;;;;;18.08;8.88;;;;;;;9.93;58.07;101370.81;2052399;28;20302;-71
2022/04/27 00:34:34;;;;;;;20.00;9.38;;;;;;;9.91;58.44;101372.09;2052993;28;20294;-70
2022/04/27 00:35:37;;;;;;;16.90;9.25;;;;;;;9.94;58.96;101376.97;2060582;28;20296;-70
2022/04/27 00:36:40;;;;;;;15.93;9.65;;;;;;;9.99;59.00;101377.00;2067610;28;20299;-69
2022/04/27 00:37:43;;;;;;;24.02;10.25;;;;;;;9.99;58.94;101379.69;2059878;28;20782;-70
2022/04/27 00:38:47;;;;;;;16.90;9.70;;;;;;;10.03;58.88;101374.66;2063607;28;20285;-70
2022/04/27 00:39:48;;;;;;;16.25;9.80;;;;;;;10.01;58.80;101379.47;2053906;28;20310;-69
2022/04/27 00:40:52;;;;;;;16.77;9.23;;;;;;;10.04;58.88;101381.63;2052296;28;20840;-69
2022/04/27 00:41:59;;;;;;;14.77;9.43;;;;;;;9.97;59.74;101379.97;2058742;28;20294;-70
2022/04/27 00:43:05;;;;;;;16.50;9.95;;;;;;;9.98;59.50;101381.56;2058613;28;20693;-70
2022/04/27 00:44:07;;;;;;;17.63;10.13;;;;;;;9.98;59.53;101384.25;2060437;28;20402;-70
2022/04/27 00:45:10;;;;;;;18.42;10.02;;;;;;;9.94;59.35;101383.16;2067125;28;20297;-70
2022/04/27 00:46:15;;;;;;;16.23;9.73;;;;;;;9.97;59.88;101385.34;2066835;28;20831;-70
2022/04/27 00:47:20;;;;;;;16.38;9.43;;;;;;;10.01;59.60;101382.13;2059111;28;20298;-70
2022/04/27 00:48:30;;;;;;;18.77;10.05;;;;;;;9.93;59.61;101380.72;2052477;28;20294;-69
2022/04/27 00:49:32;;;;;;;17.02;9.77;;;;;;;9.92;59.52;101376.41;2054603;28;20294;-69
2022/04/27 00:50:38;;;;;;;18.00;9.90;;;;;;;9.95;59.27;101381.28;2056254;28;20301;-69
2022/04/27 00:51:42;;;;;;;16.90;10.15;;;;;;;9.85;59.94;101384.66;2044926;28;20303;-69
2022/04/27 00:52:48;;;;;;;19.60;10.10;;;;;;;9.89;59.48;101385.78;2052769;28;20286;-69
2022/04/27 00:53:51;;;;;;;18.35;9.85;;;;;;;9.90;59.71;101390.13;2061664;28;20285;-69
2022/04/27 00:54:55;;;;;;;15.63;9.07;;;;;;;9.95;60.32;101390.13;2055378;28;20975;-69
2022/04/27 00:56:01;;;;;;;16.40;8.73;;;;;;;9.97;60.84;101387.22;2053032;28;20302;-69
2022/04/27 00:57:09;;;;;;;18.20;9.70;;;;;;;9.89;59.89;101385.78;2047579;28;20310;-69
2022/04/27 00:58:14;;;;;;;20.38;10.40;;;;;;;9.90;60.15;101387.41;2056359;28;20306;-69
2022/04/27 00:59:18;;;;;;;20.40;10.63;;;;;;;9.93;60.04;101386.91;2065929;28;20293;-70
2022/04/27 01:00:20;;;;;;;19.33;10.43;;;;;;;10.01;59.41;101382.13;2059633;28;20290;-69
2022/04/27 01:01:23;;;;;;;19.48;10.30;;;;;;;10.05;59.56;101388.63;2066235;28;20294;-68
2022/04/27 01:02:28;;;;;;;19.35;10.20;;;;;;;10.10;59.65;101394.06;2063364;28;20289;-69
2022/04/27 01:03:30;;;;;;;21.23;11.10;;;;;;;10.16;59.87;101396.53;2054056;28;20818;-69
2022/04/27 01:04:39;;;;;;;21.42;10.70;;;;;;;10.22;59.16;101392.03;2044364;28;21121;-68
2022/04/27 01:05:42;;;;;;;18.00;10.52;;;;;;;10.22;59.55;101394.72;2047326;28;20303;-68
2022/04/27 01:06:44;;;;;;;20.88;10.43;;;;;;;10.23;59.09;101396.31;2051734;28;20310;-69
2022/04/27 01:07:52;;;;;;;21.65;10.80;;;;;;;10.23;59.24;101396.31;2043878;28;20815;-69
2022/04/27 01:08:57;;;;;;;20.42;10.68;;;;;;;10.21;58.86;101393.91;2051919;28;20802;-69
2022/04/27 01:10:00;;;;;;;21.65;10.40;;;;;;;10.16;59.04;101396.53;2054908;28;20042;-70
2022/04/27 01:11:03;;;;;;;18.65;10.50;;;;;;;10.19;58.75;101390.66;2060079;28;20300;-69
2022/04/27 01:12:10;;;;;;;21.17;11.45;;;;;;;10.24;58.22;101392.56;2056470;28;20301;-69
2022/04/27 01:13:39;;;;;;;20.58;10.63;;;;;;;10.28;58.75;101392.91;2060196;28;20385;-70
2022/04/27 01:14:47;;;;;;;20.73;11.32;;;;;;;10.33;58.50;101393.75;2059374;28;21043;-70
2022/04/27 01:15:52;;;;;;;23.10;11.73;;;;;;;10.34;58.68;101397.22;2055098;28;20342;-70
2022/04/27 01:16:57;;;;;;;21.73;11.35;;;;;;;10.31;58.83;101390.53;2055289;28;20305;-70
2022/04/27 01:18:03;;;;;;;21.33;11.70;;;;;;;10.31;58.87;101398.59;2053406;28;20293;-71
2022/04/27 01:19:08;;;;;;;22.23;12.18;;;;;;;10.27;58.68;101394.75;2055539;28;20290;-71
2022/04/27 01:20:11;;;;;;;21.33;11.73;;;;;;;10.29;59.06;101395.31;2052604;28;20322;-71
2022/04/27 01:21:18;;;;;;;19.55;10.95;;;;;;;10.20;59.26;101394.13;2044472;28;20288;-71
2022/04/27 01:22:28;;;;;;;19.48;10.63;;;;;;;10.17;59.54;101394.66;2047032;28;20291;-71
2022/04/27 01:23:29;;;;;;;22.33;11.13;;;;;;;10.22;59.90;101400.09;2047501;28;20896;-71
2022/04/27 01:24:32;;;;;;;21.02;11.20;;;;;;;10.18;59.90;101404.31;2042770;28;20290;-71
2022/04/27 01:26:05;;;;;;;19.17;10.65;;;;;;;10.23;60.18;101408.94;2059149;28;20604;-71
2022/04/27 01:27:10;;;;;;;20.85;10.30;;;;;;;10.18;60.16;101407.84;2058552;28;20298;-70
2022/04/27 01:28:15;;;;;;;23.05;12.20;;;;;;;10.21;60.22;101411.88;2043567;28;20056;-70
2022/04/27 01:29:20;;;;;;;22.42;11.50;;;;;;;10.23;59.88;101409.75;2047597;28;20298;-71
2022/04/27 01:30:25;;;;;;;20.98;11.30;;;;;;;10.18;59.92;101405.16;2051586;28;20298;-72
2022/04/27 01:31:29;;;;;;;19.25;11.05;;;;;;;10.10;60.30;101415.56;2051784;28;20759;-72
2022/04/27 01:32:34;;;;;;;21.15;11.85;;;;;;;10.07;60.82;101414.19;2059304;28;20955;-71
2022/04/27 01:33:39;;;;;;;19.92;10.82;;;;;;;10.01;61.12;101409.81;2063498;28;20766;-72
2022/04/27 01:34:41;;;;;;;21.05;10.10;;;;;;;10.00;61.63;101418.16;2055294;28;20736;-70
2022/04/27 01:35:48;;;;;;;18.05;10.13;;;;;;;9.96;61.84;101423.19;2051959;28;20304;-71
2022/04/27 01:36:50;;;;;;;18.13;11.13;;;;;;;9.94;61.81;101415.41;2048861;28;20282;-71
2022/04/27 01:38:03;;;;;;;21.45;10.50;;;;;;;9.94;61.61;101420.75;2062831;28;20352;-70
2022/04/27 01:39:05;;;;;;;21.58;11.27;;;;;;;9.96;61.83;101415.13;2055386;28;20313;-70
2022/04/27 01:40:11;;;;;;;20.33;11.15;;;;;;;9.93;61.97;101412.94;2055964;28;20290;-70
2022/04/27 01:41:14;;;;;;;21.42;11.93;;;;;;;9.91;62.10;101418.59;2062758;28;20293;-70
2022/04/27 01:42:19;;;;;;;20.50;11.32;;;;;;;9.88;62.02;101416.41;2039958;28;20299;-70
2022/04/27 01:43:24;;;;;;;23.63;10.93;;;;;;;9.85;61.98;101426.84;2044568;28;20292;-70
2022/04/27 01:44:28;;;;;;;19.70;11.48;;;;;;;9.84;61.29;101423.34;2058194;28;21228;-70
2022/04/27 01:45:33;;;;;;;18.50;9.95;;;;;;;9.80;61.69;101424.09;2043737;28;20369;-70
2022/04/27 01:46:35;;;;;;;19.70;10.18;;;;;;;9.79;62.15;101428.66;2051589;28;20675;-71
2022/04/27 01:47:37;;;;;;;16.63;9.82;;;;;;;9.84;61.75;101431.41;2051576;28;20290;-70
2022/04/27 01:48:47;;;;;;;16.77;10.13;;;;;;;9.83;61.99;101428.97;2055925;28;20297;-70
2022/04/27 01:49:49;;;;;;;14.38;8.93;;;;;;;9.71;62.23;101426.44;2065134;28;20301;-70
2022/04/27 01:50:51;;;;;;;14.98;8.60;;;;;;;9.68;62.04;101429.63;2058397;28;20333;-70
2022/04/27 01:54:41;;;;;;;12.25;7.18;;;;;;;9.65;62.95;101425.56;2054521;28;20290;-72
2022/04/27 01:55:47;;;;;;;13.40;8.23;;;;;;;9.68;62.53;101426.94;2046544;28;20310;-72
2022/04/27 01:56:52;;;;;;;13.05;8.25;;;;;;;9.71;62.03;101421.06;2047446;28;20308;-71
2022/04/27 01:57:55;;;;;;;15.43;8.88;;;;;;;9.74;62.26;101423.22;2062784;28;20285;-72
2022/04/27 01:58:58;;;;;;;13.38;8.13;;;;;;;9.74;62.39;101421.38;2054661;28;20287;-75
2022/04/27 02:00:07;;;;;;;13.05;8.13;;;;;;;9.75;62.53;101428.34;2036285;28;20684;-74
2022/04/27 02:01:16;;;;;;;13.68;8.63;;;;;;;9.79;62.60;101428.66;2049227;28;20278;-71
2022/04/27 02:02:17;;;;;;;14.73;8.68;;;;;;;9.79;62.26;101428.66;2056265;28;20317;-71
2022/04/27 02:03:24;;;;;;;14.00;8.57;;;;;;;9.76;62.28;101423.78;2043888;28;20302;-71
2022/04/27 02:04:30;;;;;;;16.33;9.25;;;;;;;9.81;62.02;101425.72;2053619;28;20648;-71
2022/04/27 02:05:33;;;;;;;14.90;8.93;;;;;;;9.86;62.51;101426.56;2052123;28;20299;-71
2022/04/27 02:06:36;;;;;;;14.50;9.25;;;;;;;9.86;61.77;101423.88;2052480;28;20357;-71
2022/04/27 02:07:45;;;;;;;19.08;10.35;;;;;;;9.79;62.14;101430.53;2058435;28;20285;-71
2022/04/27 02:08:49;;;;;;;14.45;9.10;;;;;;;9.69;62.91;101428.53;2054450;28;20302;-71
2022/04/27 02:10:01;;;;;;;15.18;9.25;;;;;;;9.70;63.04;101430.97;2033847;29;20689;-71
2022/04/27 02:11:07;;;;;;;15.10;9.35;;;;;;;9.68;62.80;101432.31;2042923;28;20046;-71
2022/04/27 02:12:13;;;;;;;15.18;9.25;;;;;;;9.61;62.84;101428.97;2045453;28;20288;-71
2022/04/27 02:13:26;;;;;;;14.43;9.02;;;;;;;9.65;63.10;101432.81;2052565;28;20054;-71
2022/04/27 02:14:35;;;;;;;12.82;8.75;;;;;;;9.63;63.32;101429.53;2048710;28;20869;-71
2022/04/27 02:15:39;;;;;;;15.43;8.82;;;;;;;9.67;63.35;101434.16;2047268;28;20287;-71
2022/04/27 02:16:55;;;;;;;16.33;9.40;;;;;;;9.75;62.90;101435.59;2053133;28;20294;-70
2022/04/27 02:17:56;;;;;;;17.80;9.55;;;;;;;9.83;63.05;101435.13;2059048;28;20783;-70
2022/04/27 02:19:02;;;;;;;15.68;9.38;;;;;;;9.73;63.35;101435.84;2058452;28;20285;-70
2022/04/27 02:20:12;;;;;;;15.93;9.95;;;;;;;9.72;62.75;101434.22;2051087;28;20279;-70
2022/04/27 02:21:20;;;;;;;15.45;9.18;;;;;;;9.67;63.53;101436.84;2055019;28;20297;-71
2022/04/27 02:22:21;;;;;;;14.90;8.18;;;;;;;9.62;63.46;101430.63;2059692;28;20544;-70
2022/04/27 02:23:29;;;;;;;16.80;9.15;;;;;;;9.65;63.31;101432.81;2051422;28;20293;-71
2022/04/27 02:24:36;;;;;;;17.40;9.82;;;;;;;9.66;63.10;101437.09;2048180;28;20306;-70
2022/04/27 02:25:41;;;;;;;17.05;10.15;;;;;;;9.68;63.50;101432.31;2052744;28;20301;-71
2022/04/27 02:26:44;;;;;;;15.98;10.10;;;;;;;9.72;63.41;101431.53;2058153;28;20335;-70
2022/04/27 02:27:46;;;;;;;22.40;7.65;;;;;;;9.64;63.27;101433.84;2038679;29;20295;-70
2022/04/27 02:28:50;;;;;;;18.95;8.55;;;;;;;9.58;63.77;101427.59;2032099;28;20629;-70
2022/04/27 02:29:54;;;;;;;16.30;8.88;;;;;;;9.62;63.79;101427.94;2051566;28;20306;-70
2022/04/27 02:31:01;;;;;;;14.70;8.93;;;;;;;9.65;63.75;101438.97;2045066;28;20290;-70
2022/04/27 02:32:07;;;;;;;19.00;9.80;;;;;;;9.65;63.33;101432.81;2062289;28;20273;-70
2022/04/27 02:33:12;;;;;;;18.08;9.63;;;;;;;9.73;63.67;101435.03;2065711;28;20694;-70
2022/04/27 02:34:15;;;;;;;21.20;10.18;;;;;;;9.80;63.64;101441.00;2062166;28;20611;-70
2022/04/27 02:35:19;;;;;;;17.92;9.98;;;;;;;9.76;63.49;101434.53;2054590;28;20294;-70
2022/04/27 02:36:23;;;;;;;17.50;10.35;;;;;;;9.80;63.53;101434.84;2051441;28;20290;-70
2022/04/27 02:37:29;;;;;;;20.30;11.20;;;;;;;9.79;63.41;101434.03;2053609;28;20286;-70
2022/04/27 02:38:33;;;;;;;19.08;10.40;;;;;;;9.73;63.59;101435.03;2051634;28;20313;-70
2022/04/27 02:39:39;;;;;;;20.20;9.90;;;;;;;9.74;63.05;101434.78;2051317;28;20297;-70
2022/04/27 02:40:45;;;;;;;16.85;9.57;;;;;;;9.77;63.43;101428.09;2045060;28;20286;-70
2022/04/27 02:41:53;;;;;;;16.65;9.80;;;;;;;9.81;63.83;101434.59;2053215;28;20333;-70
2022/04/27 02:42:56;;;;;;;17.85;10.45;;;;;;;9.84;62.97;101435.97;2059107;28;20860;-69
2022/04/27 02:43:58;;;;;;;17.33;9.98;;;;;;;9.81;63.20;101431.91;2051257;28;20290;-70
2022/04/27 02:45:00;;;;;;;16.85;10.18;;;;;;;9.81;63.07;101437.28;2039410;28;20287;-69
2022/04/27 02:46:08;;;;;;;19.00;10.07;;;;;;;9.82;63.07;101436.22;2039755;28;20288;-69
2022/04/27 02:47:14;;;;;;;18.25;10.13;;;;;;;9.82;63.39;101432.72;2056336;28;20852;-73
2022/04/27 02:48:17;;;;;;;19.67;9.43;;;;;;;9.72;63.39;101442.28;2064380;28;20289;-72
2022/04/27 02:52:06;;;;;;;19.33;10.73;;;;;;;9.74;63.61;101434.78;2054384;28;20296;-71
2022/04/27 02:53:31;;;;;;;24.98;10.50;;;;;;;9.80;63.38;101446.38;2049547;28;20294;-73
2022/04/27 02:54:33;;;;;;;20.02;10.10;;;;;;;9.82;63.41;101448.84;2049091;28;20301;-73
2022/04/27 02:55:41;;;;;;;18.65;9.23;;;;;;;9.81;62.76;101445.34;2043345;28;20301;-73
2022/04/27 02:56:45;;;;;;;22.88;10.23;;;;;;;9.84;63.36;101446.72;2043864;28;20771;-73
2022/04/27 02:57:50;;;;;;;19.50;9.15;;;;;;;9.78;63.01;101448.53;2054849;28;20294;-73
2022/04/27 02:58:53;;;;;;;18.85;9.50;;;;;;;9.79;62.41;101455.50;2035109;29;21086;-73
2022/04/27 03:00:00;;;;;;;16.33;8.70;;;;;;;9.70;63.01;101454.31;2037975;28;20819;-73
2022/04/27 03:01:06;;;;;;;13.80;7.57;;;;;;;9.64;62.77;101458.00;2051298;28;20282;-73
2022/04/27 03:02:13;;;;;;;12.85;7.55;;;;;;;9.47;63.13;101458.06;2036605;28;20280;-71
2022/04/27 03:03:21;;;;;;;16.52;8.88;;;;;;;9.45;62.84;101460.19;2044265;28;20350;-73
2022/04/27 03:04:27;;;;;;;16.63;8.50;;;;;;;9.47;63.07;101458.06;2052293;28;20301;-73
2022/04/27 03:05:32;;;;;;;15.93;8.98;;;;;;;9.50;63.85;101455.69;2047866;28;20815;-73
2022/04/27 03:06:40;;;;;;;17.30;8.77;;;;;;;9.50;63.61;101463.75;2048408;28;20295;-73
2022/04/27 03:07:47;;;;;;;18.08;9.23;;;;;;;9.53;63.77;101473.19;2058297;28;20298;-73
2022/04/27 03:08:50;;;;;;;18.05;8.85;;;;;;;9.51;62.88;101469.94;2058276;28;20058;-73
2022/04/27 03:09:54;;;;;;;16.75;8.07;;;;;;;9.48;63.63;101470.44;2059071;28;20305;-73
2022/04/27 03:11:01;;;;;;;15.80;7.95;;;;;;;9.48;63.84;101475.81;2050924;28;20297;-72
2022/04/27 03:12:33;;;;;;;13.75;6.00;;;;;;;9.45;63.02;101474.41;2041797;29;20361;-72
2022/04/27 03:13:37;;;;;;;9.23;5.82;;;;;;;9.46;62.89;101478.75;2047046;28;21282;-73
2022/04/27 03:14:50;;;;;;;13.25;6.32;;;;;;;9.45;62.99;101482.47;2052003;28;20298;-73
2022/04/27 03:15:56;;;;;;;9.02;5.90;;;;;;;9.36;63.50;101480.47;2041883;28;20310;-71
2022/04/27 03:17:01;;;;;;;11.23;6.85;;;;;;;9.35;62.72;101474.28;2050737;28;20302;-71
2022/04/27 03:18:19;;;;;;;11.00;5.95;;;;;;;9.36;62.93;101481.28;2047286;28;20398;-71
2022/04/27 03:19:26;;;;;;;10.15;5.53;;;;;;;9.37;63.17;101477.53;2058769;28;20281;-71
2022/04/27 03:20:28;;;;;;;11.02;6.00;;;;;;;9.33;63.25;101484.47;2043052;29;20298;-71
2022/04/27 03:21:32;;;;;;;10.25;5.75;;;;;;;9.34;63.90;101491.47;2043891;28;20302;-72
2022/04/27 03:22:35;;;;;;;8.57;5.07;;;;;;;9.29;63.50;101496.75;2050090;28;20675;-71
2022/04/27 03:23:44;;;;;;;8.02;4.28;;;;;;;9.24;63.35;101504.75;2043623;28;20299;-71
2022/04/27 03:24:46;;;;;;;8.07;4.15;;;;;;;9.18;63.21;101486.94;2042404;28;20294;-71
2022/04/27 03:26:02;;;;;;;7.63;3.97;;;;;;;9.20;63.38;101500.91;2045053;28;20302;-71
2022/04/27 03:27:06;;;;;;;5.93;4.18;;;;;;;9.17;63.75;101501.41;2050775;28;20649;-71
2022/04/27 03:28:10;;;;;;;7.65;4.10;;;;;;;9.17;63.78;101506.75;2062614;28;20277;-72
2022/04/27 03:29:17;;;;;;;5.90;4.13;;;;;;;9.16;63.53;101505.16;2051142;28;20306;-70
2022/04/27 03:30:22;;;;;;;7.25;4.50;;;;;;;9.15;63.34;101503.53;2052498;28;20298;-70
2022/04/27 03:31:29;;;;;;;5.95;3.90;;;;;;;9.12;63.46;101506.69;2058267;28;20294;-71
2022/04/27 03:32:33;;;;;;;7.40;3.60;;;;;;;9.14;64.14;101512.63;2061909;28;20293;-71
2022/04/27 03:33:40;;;;;;;7.47;4.43;;;;;;;9.16;63.82;101511.31;2061881;28;20309;-70
2022/04/27 03:34:56;;;;;;;5.75;3.90;;;;;;;9.23;63.30;101511.94;2047466;28;20303;-70
2022/04/27 03:36:02;;;;;;;7.03;4.53;;;;;;;9.26;63.66;101513.34;2039595;29;20318;-70
2022/04/27 03:37:04;;;;;;;5.82;3.80;;;;;;;9.29;63.34;101518.22;2045420;28;20294;-72
2022/04/27 03:38:10;;;;;;;6.30;3.95;;;;;;;9.31;63.66;101510.75;2046290;29;20302;-71
2022/04/27 03:39:14;;;;;;;7.55;4.60;;;;;;;9.31;63.27;101510.75;2047355;28;20299;-71
2022/04/27 03:40:21;;;;;;;14.57;4.05;;;;;;;9.33;63.77;101508.63;2050521;28;20286;-71
2022/04/27 03:41:28;;;;;;;8.85;4.05;;;;;;;9.37;63.22;101511.63;2054166;28;20294;-71
2022/04/27 03:42:31;;;;;;;7.40;4.63;;;;;;;9.38;63.30;101508.69;2054526;28;20301;-71
2022/04/27 03:43:35;;;;;;;7.35;4.40;;;;;;;9.38;63.52;101513.25;2043825;28;20309;-71
2022/04/27 03:44:40;;;;;;;7.32;4.35;;;;;;;9.37;63.54;101520.50;2051190;28;20301;-71
2022/04/27 03:45:42;;;;;;;8.18;4.43;;;;;;;9.39;63.58;101515.66;2050017;28;20301;-71
2022/04/27 03:46:47;;;;;;;7.45;4.00;;;;;;;9.42;63.35;101519.75;2054351;28;20769;-72
2022/04/27 03:47:52;;;;;;;7.68;4.50;;;;;;;9.42;63.35;101515.19;2046780;28;20290;-72
2022/04/27 03:48:56;;;;;;;7.13;4.60;;;;;;;9.50;63.62;101522.00;2049132;28;20310;-72
2022/04/27 03:50:04;;;;;;;5.60;3.85;;;;;;;9.44;63.43;101517.63;2052857;28;20310;-72
2022/04/27 03:51:14;;;;;;;7.68;4.30;;;;;;;9.46;63.03;101513.66;2055493;28;20852;-72
2022/04/27 03:52:20;;;;;;;7.68;4.10;;;;;;;9.49;63.31;101515.03;2051926;28;21031;-71
2022/04/27 03:53:31;;;;;;;8.40;4.93;;;;;;;9.49;63.03;101523.88;2042123;29;20291;-71
2022/04/27 03:54:38;;;;;;;8.05;4.22;;;;;;;9.55;63.44;101521.25;2043986;28;20306;-71
2022/04/27 03:55:44;;;;;;;8.50;4.47;;;;;;;9.59;63.61;101531.25;2046005;28;20337;-71
2022/04/27 03:56:46;;;;;;;8.07;4.55;;;;;;;9.63;62.96;101526.22;2046477;28;20326;-72
2022/04/27 03:57:49;;;;;;;8.30;5.30;;;;;;;9.63;63.06;101526.22;2051541;28;20320;-72
2022/04/27 03:58:57;;;;;;;8.40;4.88;;;;;;;9.62;63.51;101521.91;2047182;28;20294;-72
2022/04/27 03:59:59;;;;;;;7.30;4.65;;;;;;;9.60;63.28;101521.34;2046787;28;20301;-72
2022/04/27 04:01:22;;;;;;;8.25;4.75;;;;;;;9.64;63.40;101523.25;2060288;28;20286;-72
2022/04/27 04:02:27;;;;;;;8.93;5.25;;;;;;;9.67;63.03;101528.13;2054837;28;20309;-73
2022/04/27 04:03:35;;;;;;;8.82;5.45;;;;;;;9.74;63.17;101533.31;2054952;28;20306;-72
2022/04/27 04:04:39;;;;;;;8.63;5.63;;;;;;;9.77;63.13;101526.66;2061863;28;20305;-73
2022/04/27 04:05:44;;;;;;;8.07;5.38;;;;;;;9.82;62.37;101521.34;2062267;28;20281;-74
2022/04/27 04:06:50;;;;;;;8.70;5.47;;;;;;;9.87;62.79;101526.81;2066833;28;20285;-73
2022/04/27 04:07:57;;;;;;;8.40;5.20;;;;;;;9.82;62.97;101524.84;2059218;28;20285;-73
2022/04/27 04:09:01;;;;;;;10.15;5.53;;;;;;;9.84;62.83;101532.66;2052200;28;20297;-71
2022/04/27 04:10:11;;;;;;;7.95;5.35;;;;;;;9.89;63.08;101524.66;2039062;28;20307;-71
2022/04/27 04:11:21;;;;;;;8.82;5.40;;;;;;;9.93;62.70;101525.78;2052361;28;20301;-71
2022/04/27 04:12:47;;;;;;;7.93;5.15;;;;;;;9.98;62.26;101528.53;2057638;28;20293;-71
2022/04/27 04:14:21;;;;;;;8.93;5.22;;;;;;;10.05;62.39;101526.47;2062016;28;20296;-71
2022/04/27 04:15:29;;;;;;;7.95;5.30;;;;;;;10.13;62.02;101533.28;2046039;28;20298;-71
2022/04/27 04:16:51;;;;;;;7.80;4.88;;;;;;;10.15;61.63;101523.06;2047225;28;20316;-71
2022/04/27 04:18:19;;;;;;;8.90;5.18;;;;;;;10.20;61.93;101525.81;2041293;29;20302;-71
2022/04/27 04:19:39;;;;;;;7.93;4.63;;;;;;;10.24;61.71;101528.81;2045652;28;20298;-70
2022/04/27 04:20:54;;;;;;;8.15;4.72;;;;;;;10.24;61.24;101537.69;2060324;28;20292;-70
2022/04/27 04:22:12;;;;;;;8.55;4.95;;;;;;;10.27;61.72;101537.22;2053772;28;20057;-71
2022/04/27 04:23:26;;;;;;;7.00;4.85;;;;;;;10.33;61.70;101541.59;2054418;28;20286;-71
2022/04/27 04:28:29;;;;;;;8.45;5.07;;;;;;;10.46;61.26;101542.25;2057797;28;20686;-71
2022/04/27 04:28:48;;;;;;;8.50;4.75;;;;;;;10.82;60.73;101544.22;2048577;28;20392;-71
2022/04/27 04:29:55;;;;;;;8.80;4.93;;;;;;;10.89;60.32;101549.38;2057449;28;20333;-70
2022/04/27 04:31:17;;;;;;;7.22;4.63;;;;;;;10.98;60.71;101547.06;2050385;28;20295;-71
2022/04/27 04:32:25;;;;;;;7.47;4.80;;;;;;;10.98;60.37;101547.06;2055650;28;20286;-71
2022/04/27 04:33:47;;;;;;;9.60;4.57;;;;;;;10.91;60.13;101547.28;2058670;28;20294;-71
2022/04/27 04:34:50;;;;;;;6.10;4.20;;;;;;;10.89;60.55;101554.78;2054940;28;20312;-72
2022/04/27 04:35:54;;;;;;;7.50;4.28;;;;;;;10.85;60.59;101557.16;2052064;28;20306;-71
2022/04/27 04:37:04;;;;;;;6.30;4.15;;;;;;;10.92;59.84;101558.84;2052389;28;20293;-71
2022/04/27 04:38:06;;;;;;;8.75;4.30;;;;;;;10.97;60.47;101562.38;2042041;29;20291;-72
2022/04/27 04:39:12;;;;;;;7.55;4.03;;;;;;;11.06;59.86;101562.72;2039876;28;20306;-72
2022/04/27 04:40:25;;;;;;;5.85;3.45;;;;;;;11.17;60.25;101560.94;2055196;28;20828;-72
2022/04/27 04:41:30;;;;;;;7.60;3.85;;;;;;;11.28;59.88;101563.41;2050326;28;20065;-72
2022/04/27 04:42:36;;;;;;;8.75;4.25;;;;;;;11.48;59.23;101564.66;2051597;28;20306;-72
2022/04/27 04:43:38;;;;;;;7.15;4.00;;;;;;;11.65;59.28;101573.34;2049942;28;20342;-71
2022/04/27 04:44:41;;;;;;;6.07;3.80;;;;;;;11.89;58.79;101573.00;2049752;28;20302;-72
2022/04/27 04:46:19;;;;;;;7.43;3.60;;;;;;;12.01;57.81;101570.84;2060854;28;20308;-71
2022/04/27 04:47:37;;;;;;;7.20;3.70;;;;;;;12.17;57.71;101569.03;2055071;28;20670;-71
2022/04/27 04:49:05;;;;;;;7.60;3.30;;;;;;;12.46;57.36;101577.50;2061116;28;20805;-72
2022/04/27 04:50:12;;;;;;;6.97;3.17;;;;;;;12.26;57.24;101568.28;2057518;28;20328;-72
2022/04/27 04:51:46;;;;;;;;;;;;;;;12.45;57.46;101574.00;2062227;28;20294;-72
2022/04/27 04:53:20;;;;;;;5.95;2.80;;;;;;;12.39;57.65;101571.53;2082809;28;20022;-71
2022/04/27 04:54:50;;;;;;;4.18;2.35;;;;;;;12.51;57.32;101569.41;2053200;28;20297;-71
2022/04/27 04:56:10;;;;;;;4.50;1.98;;;;;;;12.47;56.94;101579.13;2054686;28;20662;-71
2022/04/27 04:57:27;;;;;;;2.78;1.75;;;;;;;12.74;56.76;101577.03;2055707;28;20353;-72
2022/04/27 04:58:57;;;;;;;5.28;2.00;;;;;;;13.14;55.62;101586.19;2060367;28;20054;-71
2022/04/27 05:00:22;;;;;;;5.53;1.98;;;;;;;13.20;55.48;101581.63;2067491;28;20304;-71
2022/04/27 05:01:56;;;;;;;4.22;1.90;;;;;;;13.37;54.90;101582.19;2075762;28;20300;-71
2022/04/27 05:03:25;;;;;;;5.32;1.30;;;;;;;13.98;53.76;101585.81;2051067;28;20305;-72
2022/04/27 05:05:05;;;;;;;5.60;1.60;;;;;;;14.42;52.41;101585.91;2065472;28;20069;-72
2022/04/27 05:06:30;;;;;;;2.97;1.33;;;;;;;14.71;51.26;101587.91;2054534;28;20340;-71
2022/04/27 05:07:38;;;;;;;5.10;1.25;;;;;;;14.85;51.00;101599.75;2059288;28;20294;-73
2022/04/27 05:08:58;;;;;;;2.80;1.30;;;;;;;14.48;51.37;101587.47;2061925;28;20872;-74
2022/04/27 05:10:39;;;;;;;2.75;1.05;;;;;;;14.99;49.86;101592.59;2047770;28;20302;-72
2022/04/27 05:11:54;;;;;;;2.22;0.90;;;;;;;15.32;49.23;101592.88;2047525;28;20058;-72
2022/04/27 05:13:16;;;;;;;5.22;1.30;;;;;;;15.51;48.99;101595.66;2055187;28;20370;-72
2022/04/27 05:14:30;;;;;;;2.70;0.95;;;;;;;15.91;48.05;101597.16;2047410;28;20370;-72
2022/04/27 05:15:43;;;;;;;2.45;0.80;;;;;;;15.86;48.09;101597.22;2040841;28;20039;-71
2022/04/27 05:17:07;;;;;;;3.80;1.10;;;;;;;15.36;47.99;101599.31;2073081;28;20053;-71
2022/04/27 05:18:42;;;;;;;1.48;1.00;;;;;;;14.82;48.95;101589.47;2057454;28;20042;-72
2022/04/27 05:19:45;;;;;;;6.80;1.05;;;;;;;14.39;49.94;101599.97;2058194;28;20038;-71
2022/04/27 05:20:59;;;;;;;2.13;1.13;;;;;;;14.29;50.69;101594.63;2057528;28;20049;-71
2022/04/27 05:22:35;;;;;;;2.67;1.00;;;;;;;14.42;50.28;101609.44;2056187;28;20062;-71
2022/04/27 05:24:12;;;;;;;2.35;0.80;;;;;;;14.32;50.56;101608.41;2061219;28;20047;-70
2022/04/27 05:25:35;;;;;;;1.65;0.80;;;;;;;14.82;49.55;101600.31;2056835;28;20051;-72